KSDF Airport Diagram

We have created a template for each of the higher traffic airports in the vZID airspace. They include KCMH, KCRW, KCVG, KDAY, KIND, KLEX and KSDF. You wil find usefull information including the airport diagram, weather, and specific airport procedures.

KSDF Weather

[Source: ADDS]
METAR
KSDF 240756Z 02006KT 10SM -RA BKN010 OVC044 13/12 A2993 RMK AO2 SLP132 P0001 T01280117 =
TAF
KSDF 240537Z 2406/2512 06006KT P6SM VCSH FEW015 OVC050 TEMPO 2406/2410 5SM -SHRA BR BKN015 FM241000 04005KT 6SM BR VCSH OVC013 TEMPO 2412/2416 4SM -SHRA BR BKN009 FM241800 VRB05KT P6SM OVC013 PROB30 2418/2424 3SM -SHRA OVC009 FM250000 35008KT P6SM OVC011 =

KSDF Operations

Calm Wind Configuration is runways 17L and 17R.

Runway 17L typically departs north and east.

Runway 17R typicall departs south and west.

 

JSN Epic template designed by JoomlaShine.com